Vance Air Force Base
KEND : now visible

Airfield :











YOU CAN JOIN US ON...

 
LOGIN :

Register | Disclaimer

   EN    FR    IT 

 









Legend :    VFR   Marginal VFR   IFR   Intensive IFR   Very Intensive IFR
Visi :
Ceiling :
>= 8 km
>= 3000ft
5 to 8 km
1000 to 3000 ft
1500m to 5 km
500 to 1000 ft
800 to 1500m
200 to 500 ft
< 800m
< 200 ft
Symbols :   Thunderstorms  Fog  Heavy snow  Heavy precipitations  Wind > 20 kt







- Airport Elevation : 1307 ft


KEND - Vance Air Force Base

CURRENT METAR :
  • 201956Z AUTO 16013KT 10SM SCT036 29/22 A2989 RMK AO2 DZE39RAB39E49 SLP110 P0000 T02930217 $

EXPIRED METARs :
  • 201856Z AUTO 19008KT 10SM -DZ FEW034 BKN049 BKN140 28/21 A2993 RMK AO2 SLP123 P0000 T02810214 $
  • 201756Z AUTO 15009KT 10SM -DZ BKN030 BKN036 27/22 A2994 RMK AO2 DZB1656 SLP127 P0000 60001 T02670216 10271 20207 57010 $

TAF TAF KEND
Valid from the 20 at 18:00 until the 22 at 00:00 UTC


201800Z 2018/2124 15006KT 9999 SCT020 BKN030 QNH2990INS
BECMG 2020/2021 16012KT 9999 SCT030 QNH2988INS
BECMG 2102/2103 17012KT 9999 BKN012 510052 QNH2992INS
BECMG 2114/2115 17012G18KT 9999 VCSH BKN025 QNH2997INS
TEMPO 2119/2123 19035G50KT 8000 -TSRA BKN020CB TX30/2022Z TN21/2113Z
No reported NOTAMs for that airfield.



MET'MAP, your aeronautical weather chart ! - Copyright ORBIFLY December 2007 - Disclaimer

ORBIFLY MET'MAP TEAM :

Programming & Development : Alexandra Zaïnal
Concept & Development : Baudouin d'Aumeries
Co-Development & Prog : Marc-Olivier Méhu
Technical & hardware support : Manuel Goepfert

Contact : metmap@orbifly.com




SOURCES & CREDITS :

   NOAA       Earth
Advisory